createdAt,value
2022-10-13T00:01:16.670Z,17.54
2022-10-13T00:03:47.571Z,17.52
2022-10-13T00:06:25.716Z,17.52
2022-10-13T00:08:54.605Z,17.51
2022-10-13T00:11:27.660Z,17.52
2022-10-13T00:13:59.327Z,17.50
2022-10-13T00:16:31.424Z,17.49
2022-10-13T00:18:59.597Z,17.46
2022-10-13T00:21:28.194Z,17.44
2022-10-13T00:23:56.414Z,17.42
2022-10-13T00:26:26.845Z,17.42
2022-10-13T00:28:56.671Z,17.38
2022-10-13T00:31:31.411Z,17.37
2022-10-13T00:34:01.226Z,17.35
2022-10-13T00:36:29.540Z,17.35
2022-10-13T00:38:57.985Z,17.33
2022-10-13T00:41:25.932Z,17.30
2022-10-13T00:44:03.808Z,17.28
2022-10-13T00:46:35.107Z,17.24
2022-10-13T00:49:09.642Z,17.20
2022-10-13T00:51:44.377Z,17.17
2022-10-13T00:54:17.531Z,17.15
2022-10-13T00:56:46.791Z,17.14
2022-10-13T00:59:23.242Z,17.11
2022-10-13T01:01:53.983Z,17.07
2022-10-13T01:04:27.372Z,17.05
2022-10-13T01:06:56.866Z,17.04
2022-10-13T01:09:24.626Z,17.04
2022-10-13T01:12:28.926Z,17.01
2022-10-13T01:15:05.624Z,16.97
2022-10-13T01:18:10.757Z,16.96
2022-10-13T01:21:06.496Z,16.96
2022-10-13T01:23:42.577Z,16.96
2022-10-13T01:27:16.174Z,16.96
2022-10-13T01:30:12.106Z,16.93
2022-10-13T01:32:51.393Z,16.91
2022-10-13T01:35:43.030Z,16.90
2022-10-13T01:38:39.928Z,16.90
2022-10-13T01:41:29.298Z,16.90
2022-10-13T01:44:22.692Z,16.88
2022-10-13T01:46:57.222Z,16.87
2022-10-13T01:49:31.582Z,16.86
2022-10-13T01:52:06.421Z,16.86
2022-10-13T01:54:34.450Z,16.87
2022-10-13T01:57:02.580Z,16.86
2022-10-13T01:59:36.115Z,16.86
2022-10-13T02:02:22.731Z,16.81
2022-10-13T02:05:33.158Z,16.77
2022-10-13T02:08:24.186Z,16.75
2022-10-13T02:11:13.472Z,16.75
2022-10-13T02:14:06.409Z,16.74
2022-10-13T02:16:40.397Z,16.73
2022-10-13T02:19:14.605Z,16.74
2022-10-13T02:21:42.914Z,16.74
2022-10-13T02:24:11.344Z,16.74
2022-10-13T02:26:38.904Z,16.74
2022-10-13T02:29:17.247Z,16.74
2022-10-13T02:31:45.918Z,16.72
2022-10-13T02:34:15.021Z,16.71
2022-10-13T02:36:48.379Z,16.69
2022-10-13T02:39:17.930Z,16.69
2022-10-13T02:41:45.405Z,16.67
2022-10-13T02:44:12.923Z,16.68
2022-10-13T02:46:43.256Z,16.64
2022-10-13T02:49:11.066Z,16.64
2022-10-13T02:51:40.300Z,16.63
2022-10-13T02:54:08.738Z,16.62
2022-10-13T02:56:36.211Z,16.63
2022-10-13T02:59:03.959Z,16.64
2022-10-13T03:01:31.900Z,16.63
2022-10-13T03:03:59.652Z,16.65
2022-10-13T03:06:27.341Z,16.67
2022-10-13T03:08:55.133Z,16.68
2022-10-13T03:11:22.684Z,16.69
2022-10-13T03:13:50.181Z,16.72
2022-10-13T03:16:18.047Z,16.73
2022-10-13T03:18:45.636Z,16.77
2022-10-13T03:21:13.138Z,16.80
2022-10-13T03:23:40.880Z,16.83
2022-10-13T03:26:08.380Z,16.86
2022-10-13T03:28:35.819Z,16.90
2022-10-13T03:31:09.576Z,16.89
2022-10-13T03:33:37.267Z,16.87
2022-10-13T03:36:07.521Z,16.82
2022-10-13T03:38:36.145Z,16.79
2022-10-13T03:41:13.804Z,16.77
2022-10-13T03:43:43.507Z,16.76
2022-10-13T03:46:12.550Z,16.72
2022-10-13T03:48:41.897Z,16.70
2022-10-13T03:51:14.077Z,16.69
2022-10-13T03:53:47.346Z,16.69
2022-10-13T03:56:20.153Z,16.68
2022-10-13T03:58:57.659Z,16.68
2022-10-13T04:01:30.231Z,16.68
2022-10-13T04:04:00.160Z,16.66
2022-10-13T04:06:28.696Z,16.65
2022-10-13T04:08:56.672Z,16.63
2022-10-13T04:11:24.494Z,16.61
2022-10-13T04:13:53.050Z,16.59
2022-10-13T04:16:25.070Z,16.56
2022-10-13T04:19:01.197Z,16.54
2022-10-13T04:21:31.094Z,16.54
2022-10-13T04:24:00.506Z,16.52
2022-10-13T04:26:30.777Z,16.49
2022-10-13T04:29:00.089Z,16.44
2022-10-13T04:31:30.678Z,16.43
2022-10-13T04:33:59.053Z,16.41
2022-10-13T04:36:27.391Z,16.40
2022-10-13T04:38:55.959Z,16.37
2022-10-13T04:41:24.190Z,16.35
2022-10-13T04:43:53.390Z,16.35
2022-10-13T04:46:25.373Z,16.33
2022-10-13T04:48:55.749Z,16.32
2022-10-13T04:51:29.547Z,16.29
2022-10-13T04:54:01.166Z,16.27
2022-10-13T04:56:29.338Z,16.24
2022-10-13T04:59:05.496Z,16.16
2022-10-13T05:01:33.915Z,16.10
2022-10-13T05:04:03.839Z,16.02
2022-10-13T05:06:58.973Z,16.02
2022-10-13T05:09:29.009Z,16.03
2022-10-13T05:11:57.367Z,16.06
2022-10-13T05:14:25.047Z,16.06
2022-10-13T05:16:52.453Z,16.07
2022-10-13T05:19:20.535Z,16.05
2022-10-13T05:21:49.878Z,16.06
2022-10-13T05:24:17.730Z,16.07
2022-10-13T05:26:47.951Z,16.07
2022-10-13T05:29:15.465Z,16.06
2022-10-13T05:31:43.261Z,16.05
2022-10-13T05:34:11.342Z,16.06
2022-10-13T05:36:38.887Z,16.05
2022-10-13T05:39:08.441Z,16.06
2022-10-13T05:41:35.978Z,16.06
2022-10-13T05:44:10.485Z,16.02
2022-10-13T05:46:44.741Z,16.03
2022-10-13T05:49:12.692Z,16.04
2022-10-13T05:52:04.464Z,16.05
2022-10-13T05:54:42.202Z,16.06
2022-10-13T05:57:28.808Z,16.07
2022-10-13T06:00:19.478Z,16.09
2022-10-13T06:03:04.358Z,16.10
2022-10-13T06:05:33.050Z,16.12
2022-10-13T06:08:00.870Z,16.15
2022-10-13T06:10:29.274Z,16.20
2022-10-13T06:12:56.788Z,16.22
2022-10-13T06:15:27.954Z,16.29
2022-10-13T06:17:57.246Z,16.35
2022-10-13T06:20:25.341Z,16.43
2022-10-13T06:22:54.586Z,16.48
2022-10-13T06:25:22.205Z,16.53
2022-10-13T06:27:49.658Z,16.55
2022-10-13T06:30:17.187Z,16.60
2022-10-13T06:32:44.884Z,16.67
2022-10-13T06:35:12.479Z,16.73
2022-10-13T06:37:40.309Z,16.80
2022-10-13T06:40:11.582Z,16.86
2022-10-13T06:42:39.369Z,16.93
2022-10-13T06:45:13.570Z,17.01
2022-10-13T06:47:41.486Z,17.08
2022-10-13T06:50:09.537Z,17.14
2022-10-13T06:52:37.795Z,17.21
2022-10-13T06:55:06.218Z,17.26
2022-10-13T06:57:34.086Z,17.32
2022-10-13T07:00:06.149Z,17.37
2022-10-13T07:02:34.792Z,17.42
2022-10-13T07:05:02.302Z,17.43
2022-10-13T07:07:30.320Z,17.47
2022-10-13T07:09:57.969Z,17.51
2022-10-13T07:12:25.702Z,17.55
2022-10-13T07:14:53.198Z,17.57
2022-10-13T07:17:21.157Z,17.61
2022-10-13T07:19:49.308Z,17.65
2022-10-13T07:22:17.020Z,17.67
2022-10-13T07:24:44.840Z,17.69
2022-10-13T07:27:12.521Z,17.76
2022-10-13T07:29:39.999Z,17.80
2022-10-13T07:32:07.824Z,17.83
2022-10-13T07:34:35.396Z,17.89
2022-10-13T07:37:02.949Z,17.92
2022-10-13T07:39:30.971Z,18.01
2022-10-13T07:41:58.470Z,18.06
2022-10-13T07:44:26.461Z,18.15
2022-10-13T07:46:53.953Z,18.25
2022-10-13T07:49:22.098Z,18.35
2022-10-13T07:51:49.512Z,18.44
2022-10-13T07:54:23.716Z,18.47
2022-10-13T07:56:56.167Z,18.55
2022-10-13T07:59:23.561Z,18.65
2022-10-13T08:01:51.967Z,18.72
2022-10-13T08:04:19.823Z,18.82
2022-10-13T08:06:47.735Z,18.88
2022-10-13T08:09:15.245Z,18.93
2022-10-13T08:11:42.918Z,18.95
2022-10-13T08:14:13.514Z,19.01
2022-10-13T08:16:48.572Z,19.09
2022-10-13T08:19:22.052Z,19.13
2022-10-13T08:21:58.070Z,19.21
2022-10-13T08:24:26.877Z,19.33
2022-10-13T08:26:55.570Z,19.44
2022-10-13T08:29:24.072Z,19.57
2022-10-13T08:31:53.669Z,19.66
2022-10-13T08:34:25.733Z,19.74
2022-10-13T08:36:56.445Z,19.83
2022-10-13T08:39:43.395Z,19.91
2022-10-13T08:42:29.628Z,19.96
2022-10-13T08:48:18.123Z,20.07
2022-10-13T08:50:52.105Z,20.13
2022-10-13T08:53:47.078Z,20.23
2022-10-13T08:56:26.244Z,20.26
2022-10-13T08:58:56.671Z,20.31
2022-10-13T09:01:34.323Z,20.37
2022-10-13T09:04:11.122Z,20.41
2022-10-13T09:06:51.906Z,20.45
2022-10-13T09:09:19.932Z,20.49
2022-10-13T09:11:50.407Z,20.54
2022-10-13T09:14:35.025Z,20.63
2022-10-13T09:17:28.719Z,20.70
2022-10-13T09:20:07.272Z,20.75
2022-10-13T09:22:39.988Z,20.78
2022-10-13T09:25:07.399Z,20.79
2022-10-13T09:27:58.727Z,20.82
2022-10-13T09:30:33.852Z,20.90
2022-10-13T09:33:13.118Z,20.96
2022-10-13T09:35:46.892Z,21.02
2022-10-13T09:38:26.088Z,21.08
2022-10-13T09:41:22.418Z,21.11
2022-10-13T09:43:50.021Z,21.14
2022-10-13T09:46:27.785Z,21.14
2022-10-13T09:49:03.872Z,21.16
2022-10-13T09:51:37.183Z,21.16
2022-10-13T09:54:35.736Z,21.18
2022-10-13T09:57:26.227Z,21.21
2022-10-13T10:00:29.964Z,21.18
2022-10-13T10:03:22.017Z,21.19
2022-10-13T10:05:56.308Z,21.28
2022-10-13T10:09:03.355Z,21.34
2022-10-13T10:11:41.914Z,21.37
2022-10-13T10:14:29.378Z,21.42
2022-10-13T10:17:27.942Z,21.44
2022-10-13T10:20:26.407Z,21.47
2022-10-13T10:23:37.158Z,21.50
2022-10-13T10:26:32.850Z,21.50
2022-10-13T10:29:25.214Z,21.51
2022-10-13T10:32:13.001Z,21.53
2022-10-13T10:34:58.101Z,21.53
2022-10-13T10:37:48.779Z,21.52
2022-10-13T10:41:05.441Z,21.55
2022-10-13T10:43:40.030Z,21.57
2022-10-13T10:46:24.238Z,21.64
2022-10-13T10:48:58.894Z,21.71
2022-10-13T10:51:36.775Z,21.80
2022-10-13T10:54:34.123Z,21.90
2022-10-13T10:57:10.416Z,21.99
2022-10-13T10:59:53.165Z,22.08
2022-10-13T11:02:50.531Z,22.18
2022-10-13T11:05:18.527Z,22.25
2022-10-13T11:07:46.557Z,22.32
2022-10-13T11:10:14.072Z,22.41
2022-10-13T11:12:52.591Z,22.51
2022-10-13T11:15:31.271Z,22.59
2022-10-13T11:17:59.129Z,22.69
2022-10-13T11:20:46.415Z,22.76
2022-10-13T11:23:13.996Z,22.83
2022-10-13T11:25:43.738Z,22.92
2022-10-13T11:28:23.540Z,23.02
2022-10-13T11:31:17.995Z,23.11
2022-10-13T11:33:47.854Z,23.14
2022-10-13T11:36:56.630Z,23.22
2022-10-13T11:39:27.840Z,23.29
2022-10-13T11:42:04.810Z,23.39
2022-10-13T11:45:18.634Z,23.46
2022-10-13T11:48:19.863Z,23.51
2022-10-13T11:51:01.183Z,23.60
2022-10-13T11:54:13.144Z,23.66
2022-10-13T11:56:49.056Z,23.74
2022-10-13T11:59:29.509Z,23.77
2022-10-13T12:02:18.875Z,23.75
2022-10-13T12:05:19.757Z,23.66
2022-10-13T12:07:49.501Z,23.65
2022-10-13T12:10:32.130Z,23.60
2022-10-13T12:13:01.594Z,23.47
2022-10-13T12:15:41.989Z,23.46
2022-10-13T12:18:40.643Z,23.48
2022-10-13T12:21:15.267Z,23.52
2022-10-13T12:23:43.276Z,23.60
2022-10-13T12:26:25.333Z,23.67
2022-10-13T12:28:57.922Z,23.80
2022-10-13T12:31:40.417Z,23.98
2022-10-13T12:34:29.232Z,24.25
2022-10-13T12:37:33.407Z,24.36
2022-10-13T12:40:04.526Z,24.34
2022-10-13T12:42:35.474Z,24.28
2022-10-13T12:45:04.577Z,24.31
2022-10-13T12:47:58.507Z,24.41
2022-10-13T12:50:28.814Z,24.57
2022-10-13T12:53:20.556Z,24.72
2022-10-13T12:56:03.690Z,24.60
2022-10-13T12:58:35.254Z,24.48
2022-10-13T13:01:14.907Z,24.41
2022-10-13T13:03:44.552Z,24.34
2022-10-13T13:06:28.386Z,24.08
2022-10-13T13:09:09.933Z,24.14
2022-10-13T13:11:39.208Z,24.23
2022-10-13T13:14:38.062Z,24.33
2022-10-13T13:17:45.369Z,24.58
2022-10-13T13:20:34.890Z,24.90
2022-10-13T13:23:02.614Z,25.19
2022-10-13T13:25:30.087Z,25.45
2022-10-13T13:27:57.549Z,25.64
2022-10-13T13:30:26.507Z,25.81
2022-10-13T13:32:53.978Z,25.90
2022-10-13T13:35:21.457Z,25.78
2022-10-13T13:37:53.393Z,25.59
2022-10-13T13:40:24.891Z,25.45
2022-10-13T13:42:53.667Z,25.29
2022-10-13T13:45:24.966Z,25.12
2022-10-13T13:47:59.459Z,24.98
2022-10-13T13:50:38.174Z,25.19
2022-10-13T13:53:06.549Z,25.41
2022-10-13T13:55:34.232Z,25.50
2022-10-13T13:58:02.327Z,25.45
2022-10-13T14:00:29.866Z,25.48
2022-10-13T14:02:57.979Z,25.45
2022-10-13T14:05:26.051Z,25.37
2022-10-13T14:07:57.719Z,25.41
2022-10-13T14:10:26.780Z,25.49
2022-10-13T14:12:54.609Z,25.62
2022-10-13T14:15:25.836Z,25.71
2022-10-13T14:17:56.656Z,25.64
2022-10-13T14:20:24.134Z,25.53
2022-10-13T14:22:51.843Z,25.42
2022-10-13T14:25:19.957Z,25.41
2022-10-13T14:27:47.425Z,25.45
2022-10-13T14:30:15.125Z,25.49
2022-10-13T14:32:42.885Z,25.59
2022-10-13T14:35:10.713Z,25.67
2022-10-13T14:37:38.581Z,25.73
2022-10-13T14:40:07.277Z,25.83
2022-10-13T14:42:34.704Z,25.96
2022-10-13T14:45:06.650Z,26.04
2022-10-13T14:47:35.143Z,26.16
2022-10-13T14:50:02.912Z,26.24
2022-10-13T14:52:30.926Z,26.24
2022-10-13T14:54:58.768Z,26.25
2022-10-13T14:57:26.460Z,26.20
2022-10-13T14:59:56.876Z,26.21
2022-10-13T15:02:28.366Z,26.23
2022-10-13T15:04:56.093Z,26.22
2022-10-13T15:07:23.848Z,26.23
2022-10-13T15:10:04.175Z,26.19
2022-10-13T15:12:34.263Z,26.08
2022-10-13T15:15:02.641Z,25.98
2022-10-13T15:17:31.627Z,25.81
2022-10-13T15:19:59.797Z,25.55
2022-10-13T15:22:27.368Z,25.20
2022-10-13T15:24:54.915Z,24.83
2022-10-13T15:27:23.678Z,24.39
2022-10-13T15:29:51.199Z,23.98
2022-10-13T15:32:20.457Z,23.59
2022-10-13T15:34:55.852Z,23.19
2022-10-13T15:37:23.490Z,22.86
2022-10-13T15:39:56.916Z,22.51
2022-10-13T15:42:25.368Z,22.22
2022-10-13T15:45:10.493Z,21.95
2022-10-13T15:47:39.008Z,21.65
2022-10-13T15:50:07.887Z,21.40
2022-10-13T15:52:40.475Z,21.16
2022-10-13T15:55:11.308Z,20.95
2022-10-13T15:57:39.733Z,20.73
2022-10-13T16:00:09.794Z,20.55
2022-10-13T16:02:44.217Z,20.37
2022-10-13T16:05:13.502Z,20.20
2022-10-13T16:07:42.034Z,20.03
2022-10-13T16:10:12.344Z,19.90
2022-10-13T16:12:44.412Z,19.77
2022-10-13T16:15:17.661Z,19.64
2022-10-13T16:17:48.437Z,19.54
2022-10-13T16:20:15.996Z,19.46
2022-10-13T16:22:43.954Z,19.37
2022-10-13T16:25:12.255Z,19.30
2022-10-13T16:27:44.098Z,19.23
2022-10-13T16:30:12.955Z,19.17
2022-10-13T16:32:41.051Z,19.12
2022-10-13T16:35:09.144Z,19.08
2022-10-13T16:37:36.908Z,19.03
2022-10-13T16:40:04.751Z,18.99
2022-10-13T16:42:32.513Z,18.94
2022-10-13T16:44:59.923Z,18.89
2022-10-13T16:47:28.236Z,18.83
2022-10-13T16:49:55.844Z,18.80
2022-10-13T16:52:24.767Z,18.78
2022-10-13T16:54:52.706Z,18.73
2022-10-13T16:57:20.958Z,18.69
2022-10-13T16:59:49.863Z,18.66
2022-10-13T17:02:17.338Z,18.63
2022-10-13T17:04:45.128Z,18.59
2022-10-13T17:07:13.335Z,18.57
2022-10-13T17:09:41.112Z,18.58
2022-10-13T17:12:08.706Z,18.60
2022-10-13T17:14:36.740Z,18.61
2022-10-13T17:17:04.338Z,18.58
2022-10-13T17:19:32.310Z,18.55
2022-10-13T17:21:59.819Z,18.52
2022-10-13T17:24:27.621Z,18.49
2022-10-13T17:26:55.142Z,18.47
2022-10-13T17:29:22.867Z,18.46
2022-10-13T17:31:52.479Z,18.43
2022-10-13T17:34:22.777Z,18.40
2022-10-13T17:36:52.006Z,18.35
2022-10-13T17:39:19.741Z,18.32
2022-10-13T17:41:47.216Z,18.28
2022-10-13T17:44:20.212Z,18.24
2022-10-13T17:46:49.998Z,18.20
2022-10-13T17:49:18.311Z,18.18
2022-10-13T17:51:46.584Z,18.13
2022-10-13T17:54:16.609Z,18.11
2022-10-13T17:56:45.993Z,18.08
2022-10-13T17:59:15.733Z,18.05
2022-10-13T18:01:44.990Z,18.02
2022-10-13T18:04:16.483Z,17.98
2022-10-13T18:06:46.709Z,17.93
2022-10-13T18:09:22.303Z,17.91
2022-10-13T18:11:54.678Z,17.89
2022-10-13T18:14:24.983Z,17.89
2022-10-13T18:16:53.336Z,17.87
2022-10-13T18:19:21.708Z,17.87
2022-10-13T18:21:50.279Z,17.85
2022-10-13T18:24:17.827Z,17.85
2022-10-13T18:26:46.469Z,17.83
2022-10-13T18:29:14.383Z,17.82
2022-10-13T18:31:42.834Z,17.80
2022-10-13T18:34:17.407Z,17.80
2022-10-13T18:36:50.392Z,17.78
2022-10-13T18:39:25.811Z,17.75
2022-10-13T18:41:57.471Z,17.71
2022-10-13T18:44:34.517Z,17.66
2022-10-13T18:47:03.602Z,17.63
2022-10-13T18:49:31.578Z,17.60
2022-10-13T18:52:00.994Z,17.57
2022-10-13T18:54:32.111Z,17.55
2022-10-13T18:56:59.714Z,17.53
2022-10-13T18:59:27.424Z,17.51
2022-10-13T19:01:55.345Z,17.51
2022-10-13T19:04:23.671Z,17.50
2022-10-13T19:06:51.293Z,17.47
2022-10-13T19:09:19.647Z,17.43
2022-10-13T19:11:47.306Z,17.42
2022-10-13T19:14:16.973Z,17.38
2022-10-13T19:16:45.290Z,17.37
2022-10-13T19:19:14.244Z,17.33
2022-10-13T19:21:42.704Z,17.29
2022-10-13T19:24:11.755Z,17.26
2022-10-13T19:26:41.615Z,17.23
2022-10-13T19:29:13.073Z,17.19
2022-10-13T19:31:42.780Z,17.18
2022-10-13T19:34:12.339Z,17.15
2022-10-13T19:36:44.608Z,17.09
2022-10-13T19:39:37.749Z,17.05
2022-10-13T19:42:19.446Z,17.03
2022-10-13T19:44:47.247Z,16.99
2022-10-13T19:47:14.770Z,16.97
2022-10-13T19:49:42.235Z,16.95
2022-10-13T19:52:10.008Z,16.92
2022-10-13T19:54:40.645Z,16.92
2022-10-13T19:57:09.274Z,16.90
2022-10-13T19:59:38.579Z,16.89
2022-10-13T20:02:06.099Z,16.87
2022-10-13T20:04:33.825Z,16.85
2022-10-13T20:07:01.889Z,16.82
2022-10-13T20:09:29.488Z,16.82
2022-10-13T20:11:57.153Z,16.80
2022-10-13T20:14:24.907Z,16.79
2022-10-13T20:16:53.520Z,16.76
2022-10-13T20:19:21.128Z,16.74
2022-10-13T20:21:51.795Z,16.71
2022-10-13T20:24:23.804Z,16.70
2022-10-13T20:26:52.929Z,16.70
2022-10-13T20:29:32.788Z,16.71
2022-10-13T20:32:32.184Z,16.68
2022-10-13T20:35:00.537Z,16.68
2022-10-13T20:37:28.645Z,16.67
2022-10-13T20:39:57.213Z,16.66
2022-10-13T20:42:25.065Z,16.67
2022-10-13T20:44:52.820Z,16.68
2022-10-13T20:47:20.762Z,16.68
2022-10-13T20:49:48.719Z,16.68
2022-10-13T20:52:17.072Z,16.69
2022-10-13T20:54:47.675Z,16.68
2022-10-13T20:57:15.431Z,16.68
2022-10-13T20:59:45.245Z,16.67
2022-10-13T21:02:13.954Z,16.67
2022-10-13T21:04:42.143Z,16.66
2022-10-13T21:07:09.713Z,16.63
2022-10-13T21:09:37.633Z,16.64
2022-10-13T21:12:07.802Z,16.62
2022-10-13T21:14:38.272Z,16.63
2022-10-13T21:17:07.278Z,16.62
2022-10-13T21:19:36.422Z,16.60
2022-10-13T21:22:03.982Z,16.61
2022-10-13T21:24:32.168Z,16.61
2022-10-13T21:26:59.658Z,16.63
2022-10-13T21:29:27.538Z,16.63
2022-10-13T21:31:55.733Z,16.64
2022-10-13T21:34:23.785Z,16.64
2022-10-13T21:36:52.089Z,16.63
2022-10-13T21:39:19.816Z,16.61
2022-10-13T21:41:47.425Z,16.58
2022-10-13T21:44:15.048Z,16.55
2022-10-13T21:46:43.023Z,16.52
2022-10-13T21:49:11.232Z,16.52
2022-10-13T21:51:40.376Z,16.49
2022-10-13T21:54:13.414Z,16.42
2022-10-13T21:56:45.428Z,16.41
2022-10-13T21:59:16.050Z,16.40
2022-10-13T22:01:45.415Z,16.35
2022-10-13T22:04:15.730Z,16.26
2022-10-13T22:06:43.461Z,16.24
2022-10-13T22:09:11.838Z,16.19
2022-10-13T22:11:40.361Z,16.11
2022-10-13T22:14:14.375Z,16.03
2022-10-13T22:16:46.872Z,15.92
2022-10-13T22:19:33.363Z,15.86
2022-10-13T22:22:00.864Z,15.74
2022-10-13T22:24:28.469Z,15.69
2022-10-13T22:26:56.721Z,15.66
2022-10-13T22:29:25.299Z,15.67
2022-10-13T22:31:57.888Z,15.69
2022-10-13T22:34:26.504Z,15.73
2022-10-13T22:36:54.731Z,15.77
2022-10-13T22:39:23.593Z,15.78
2022-10-13T22:41:54.145Z,15.81
2022-10-13T22:44:21.859Z,15.84
2022-10-13T22:46:49.383Z,15.86
2022-10-13T22:49:17.129Z,15.87
2022-10-13T22:51:44.625Z,15.88
2022-10-13T22:54:12.505Z,15.87
2022-10-13T22:56:41.715Z,15.87
2022-10-13T22:59:09.862Z,15.87
2022-10-13T23:01:37.426Z,15.87
2022-10-13T23:04:05.736Z,15.87
2022-10-13T23:06:35.249Z,15.88
2022-10-13T23:09:09.163Z,15.89
2022-10-13T23:11:37.565Z,15.89
2022-10-13T23:14:06.523Z,15.86
2022-10-13T23:16:34.296Z,15.84
2022-10-13T23:19:02.830Z,15.81
2022-10-13T23:21:31.200Z,15.79
2022-10-13T23:24:03.058Z,15.75
2022-10-13T23:26:33.930Z,15.75
2022-10-13T23:29:02.869Z,15.71
2022-10-13T23:31:30.599Z,15.70
2022-10-13T23:33:58.912Z,15.70
2022-10-13T23:36:30.980Z,15.71
2022-10-13T23:39:05.588Z,15.75
2022-10-13T23:41:35.132Z,15.77
2022-10-13T23:44:03.282Z,15.78
2022-10-13T23:46:31.625Z,15.79
2022-10-13T23:48:59.100Z,15.78
2022-10-13T23:51:27.204Z,15.78
2022-10-13T23:53:55.801Z,15.77
2022-10-13T23:56:23.881Z,15.77
2022-10-13T23:58:51.812Z,15.74
